Minneola, Florida
Current Conditions -  °F | °C
As of 10:53 PM on Saturday 22 Nov 2014 (Local Time) from KLEE Reporting Station
Broken Clouds Broken Clouds  
Wind Chill: 69°   Ceiling: 3200
Heat Index: 69°   Visibility: 10mi
Dew Point: 65°   Wind: 8mph
Humidity: 87%   Direction: 110°ESE
Pressure: 30.13"   Gusts: NA
Location:  28.57°N, 81.75°W
Report Text: KLEE 230353Z AUTO 11007KT 10SM BKN032 21/18 A3013 RMK AO2 SLP202 T02060183
Loading
Personal Weather Stations






























Interactive Weather Map New forecast layout! Learn more

10-Day Weather Forecast

Advertisements
Track Severe Weather on mobile